createdAt,value
2023-01-27T00:00:36.114Z,0.41
2023-01-27T00:03:02.826Z,0.48
2023-01-27T00:05:29.539Z,0.43
2023-01-27T00:07:58.749Z,0.48
2023-01-27T00:10:26.432Z,0.53
2023-01-27T00:13:12.398Z,0.56
2023-01-27T00:15:39.687Z,0.46
2023-01-27T00:18:08.087Z,0.49
2023-01-27T00:20:53.408Z,0.53
2023-01-27T00:23:41.153Z,0.38
2023-01-27T00:26:11.750Z,0.43
2023-01-27T00:28:40.334Z,0.30
2023-01-27T00:31:27.304Z,0.25
2023-01-27T00:33:56.276Z,0.24
2023-01-27T00:36:23.089Z,0.30
2023-01-27T00:38:49.709Z,0.26
2023-01-27T00:41:19.851Z,0.33
2023-01-27T00:43:51.635Z,0.28
2023-01-27T00:48:58.443Z,0.40
2023-01-27T00:51:25.401Z,0.33
2023-01-27T00:53:52.052Z,0.36
2023-01-27T00:56:19.458Z,0.34
2023-01-27T00:58:46.276Z,0.26
2023-01-27T01:01:15.609Z,0.28
2023-01-27T01:03:43.018Z,0.27
2023-01-27T01:06:11.759Z,0.21
2023-01-27T01:16:21.978Z,0.28
2023-01-27T01:18:48.946Z,0.41
2023-01-27T01:21:15.848Z,0.37
2023-01-27T01:23:43.862Z,0.38
2023-01-27T01:26:12.120Z,0.38
2023-01-27T01:28:39.179Z,0.52
2023-01-27T01:31:11.025Z,0.40
2023-01-27T01:36:13.324Z,0.44
2023-01-27T01:38:40.131Z,0.35
2023-01-27T01:41:10.262Z,0.38
2023-01-27T01:43:36.889Z,0.33
2023-01-27T01:46:04.476Z,0.40
2023-01-27T01:49:01.877Z,0.42
2023-01-27T01:51:40.462Z,0.41
2023-01-27T01:54:12.309Z,0.30
2023-01-27T01:56:41.916Z,0.59
2023-01-27T01:59:17.807Z,0.58
2023-01-27T02:04:21.429Z,0.38
2023-01-27T02:07:05.835Z,0.44
2023-01-27T02:09:33.004Z,0.32
2023-01-27T02:12:00.593Z,0.32
2023-01-27T02:14:27.315Z,0.20
2023-01-27T02:16:54.615Z,0.27
2023-01-27T02:19:42.543Z,0.30
2023-01-27T02:22:13.227Z,0.39
2023-01-27T02:24:47.306Z,0.36
2023-01-27T02:27:14.512Z,0.29
2023-01-27T02:29:41.098Z,0.40
2023-01-27T02:32:07.609Z,0.32
2023-01-27T02:34:37.891Z,0.37
2023-01-27T02:37:08.166Z,0.28
2023-01-27T02:39:40.286Z,0.26
2023-01-27T02:42:08.448Z,0.34
2023-01-27T02:44:35.176Z,0.30
2023-01-27T02:47:01.756Z,0.27
2023-01-27T02:49:28.274Z,0.33
2023-01-27T02:51:54.916Z,0.28
2023-01-27T02:54:21.475Z,0.30
2023-01-27T02:56:48.072Z,0.28
2023-01-27T02:59:14.583Z,0.31
2023-01-27T03:01:41.197Z,0.27
2023-01-27T03:04:09.309Z,0.34
2023-01-27T03:09:14.176Z,0.36
2023-01-27T03:11:59.478Z,0.41
2023-01-27T03:14:44.427Z,0.35
2023-01-27T03:17:29.670Z,0.37
2023-01-27T03:19:56.224Z,0.29
2023-01-27T03:22:22.795Z,0.35
2023-01-27T03:24:49.330Z,0.42
2023-01-27T03:27:15.841Z,0.50
2023-01-27T03:29:58.160Z,0.49
2023-01-27T03:32:26.523Z,0.46
2023-01-27T03:34:53.229Z,0.33
2023-01-27T03:37:38.384Z,0.33
2023-01-27T03:40:24.267Z,0.38
2023-01-27T03:43:12.198Z,0.33
2023-01-27T03:45:57.632Z,0.49
2023-01-27T03:48:24.288Z,0.50
2023-01-27T03:50:53.851Z,0.53
2023-01-27T03:53:20.850Z,0.48
2023-01-27T03:55:47.552Z,0.58
2023-01-27T03:58:19.849Z,0.59
2023-01-27T04:00:57.842Z,0.54
2023-01-27T04:03:45.295Z,0.34
2023-01-27T04:06:34.267Z,0.43
2023-01-27T04:09:01.107Z,0.57
2023-01-27T04:11:46.108Z,0.51
2023-01-27T04:14:12.954Z,0.55
2023-01-27T04:16:39.749Z,0.60
2023-01-27T04:19:09.337Z,0.56
2023-01-27T04:21:36.315Z,0.53
2023-01-27T04:24:04.337Z,0.54
2023-01-27T04:26:34.649Z,0.41
2023-01-27T04:29:03.445Z,0.36
2023-01-27T04:31:30.739Z,0.33
2023-01-27T04:33:57.299Z,0.37
2023-01-27T04:36:23.984Z,0.28
2023-01-27T04:38:50.544Z,0.27
2023-01-27T04:41:17.320Z,0.32
2023-01-27T04:43:43.866Z,0.37
2023-01-27T04:46:10.522Z,0.28
2023-01-27T04:48:37.112Z,0.38
2023-01-27T04:51:03.819Z,0.39
2023-01-27T04:53:30.392Z,0.49
2023-01-27T04:56:06.324Z,0.42
2023-01-27T04:58:33.205Z,0.44
2023-01-27T05:00:59.764Z,0.44
2023-01-27T05:03:26.336Z,0.34
2023-01-27T05:05:52.863Z,0.40
2023-01-27T05:08:19.433Z,0.31
2023-01-27T05:10:46.018Z,0.37
2023-01-27T05:13:12.693Z,0.43
2023-01-27T05:15:39.290Z,0.42
2023-01-27T05:18:05.927Z,0.36
2023-01-27T05:20:32.848Z,0.33
2023-01-27T05:23:19.424Z,0.40
2023-01-27T05:25:46.348Z,0.28
2023-01-27T05:28:12.927Z,0.32
2023-01-27T05:30:39.681Z,0.36
2023-01-27T05:33:08.215Z,0.34
2023-01-27T05:35:35.428Z,0.35
2023-01-27T05:38:02.182Z,0.37
2023-01-27T05:40:28.864Z,0.40
2023-01-27T05:42:55.386Z,0.30
2023-01-27T05:45:21.957Z,0.32
2023-01-27T05:47:51.947Z,0.28
2023-01-27T05:50:18.949Z,0.31
2023-01-27T05:52:46.074Z,0.44
2023-01-27T05:55:12.947Z,0.37
2023-01-27T05:57:39.667Z,0.37
2023-01-27T06:00:06.962Z,0.35
2023-01-27T06:02:33.566Z,0.35
2023-01-27T06:05:00.164Z,0.38
2023-01-27T06:10:05.723Z,0.34
2023-01-27T06:12:32.278Z,0.34
2023-01-27T06:15:00.397Z,0.33
2023-01-27T06:17:26.933Z,0.35
2023-01-27T06:19:53.514Z,0.30
2023-01-27T06:22:20.201Z,0.28
2023-01-27T06:24:46.714Z,0.30
2023-01-27T06:27:13.255Z,0.27
2023-01-27T06:29:39.832Z,0.47
2023-01-27T06:32:06.497Z,0.42
2023-01-27T06:34:33.055Z,0.41
2023-01-27T06:36:59.643Z,0.32
2023-01-27T06:39:26.437Z,0.31
2023-01-27T06:41:53.061Z,0.31
2023-01-27T06:44:19.650Z,0.29
2023-01-27T06:46:46.208Z,0.45
2023-01-27T06:49:13.451Z,0.35
2023-01-27T06:51:39.967Z,0.93
2023-01-27T06:54:06.758Z,0.91
2023-01-27T06:59:04.549Z,0.70
2023-01-27T07:01:31.139Z,0.70
2023-01-27T07:03:57.773Z,0.58
2023-01-27T07:06:24.364Z,0.52
2023-01-27T07:08:52.047Z,0.52
2023-01-27T07:11:19.633Z,0.53
2023-01-27T07:13:46.525Z,0.56
2023-01-27T07:16:13.270Z,0.56
2023-01-27T07:18:39.817Z,0.51
2023-01-27T07:21:06.592Z,0.51
2023-01-27T07:23:33.176Z,0.52
2023-01-27T07:26:04.290Z,0.59
2023-01-27T07:28:32.381Z,0.56
2023-01-27T07:31:03.039Z,0.57
2023-01-27T07:33:29.663Z,0.53
2023-01-27T07:35:56.250Z,0.26
2023-01-27T07:38:22.825Z,0.32
2023-01-27T07:40:49.427Z,0.34
2023-01-27T07:43:16.079Z,0.36
2023-01-27T07:45:42.702Z,0.40
2023-01-27T07:48:09.858Z,0.32
2023-01-27T07:50:36.573Z,0.51
2023-01-27T07:53:05.007Z,0.43
2023-01-27T07:55:33.177Z,0.47
2023-01-27T07:57:59.845Z,0.50
2023-01-27T08:00:26.735Z,0.46
2023-01-27T08:02:54.687Z,0.39
2023-01-27T08:05:22.942Z,0.41
2023-01-27T08:07:51.006Z,0.47
2023-01-27T08:10:19.028Z,0.49
2023-01-27T08:12:46.156Z,0.46
2023-01-27T08:15:13.076Z,0.42
2023-01-27T08:17:39.845Z,0.30
2023-01-27T08:20:06.970Z,0.43
2023-01-27T08:22:33.507Z,0.47
2023-01-27T08:25:00.072Z,0.57
2023-01-27T08:27:26.617Z,0.53
2023-01-27T08:29:53.582Z,0.51
2023-01-27T08:32:20.110Z,0.44
2023-01-27T08:34:46.655Z,0.54
2023-01-27T08:37:13.274Z,0.45
2023-01-27T08:39:39.841Z,0.68
2023-01-27T08:42:06.361Z,0.69
2023-01-27T08:44:32.945Z,0.65
2023-01-27T08:46:59.462Z,0.64
2023-01-27T08:49:26.078Z,0.57
2023-01-27T08:51:52.644Z,0.68
2023-01-27T08:54:19.300Z,0.55
2023-01-27T08:56:45.906Z,0.62
2023-01-27T08:59:12.571Z,0.65
2023-01-27T09:01:39.552Z,0.53
2023-01-27T09:04:06.081Z,0.68
2023-01-27T09:06:32.698Z,0.63
2023-01-27T09:09:12.305Z,0.64
2023-01-27T09:11:41.756Z,0.79
2023-01-27T09:14:09.033Z,0.78
2023-01-27T09:16:35.894Z,1.05
2023-01-27T09:19:03.443Z,0.80
2023-01-27T09:21:30.357Z,0.93
2023-01-27T09:23:56.939Z,0.82
2023-01-27T09:26:23.543Z,0.91
2023-01-27T09:28:50.146Z,0.92
2023-01-27T09:31:16.824Z,0.84
2023-01-27T09:33:43.466Z,0.85
2023-01-27T09:36:12.119Z,1.00
2023-01-27T09:38:45.342Z,1.06
2023-01-27T09:41:24.037Z,1.06
2023-01-27T09:44:02.698Z,0.92
2023-01-27T09:46:50.746Z,0.92
2023-01-27T09:49:24.113Z,0.92
2023-01-27T09:52:21.160Z,0.94
2023-01-27T09:55:21.995Z,0.96
2023-01-27T09:58:04.189Z,1.03
2023-01-27T10:01:08.809Z,1.05
2023-01-27T10:03:43.477Z,1.09
2023-01-27T10:06:42.101Z,1.32
2023-01-27T10:09:14.559Z,1.29
2023-01-27T10:11:47.545Z,1.30
2023-01-27T10:14:19.999Z,1.25
2023-01-27T10:17:24.369Z,1.22
2023-01-27T10:23:13.653Z,1.14
2023-01-27T10:25:54.166Z,1.16
2023-01-27T10:28:24.099Z,1.24
2023-01-27T10:31:13.568Z,1.20
2023-01-27T10:33:46.389Z,1.38
2023-01-27T10:36:26.597Z,1.37
2023-01-27T10:39:05.856Z,1.29
2023-01-27T10:41:47.367Z,1.35
2023-01-27T10:44:16.618Z,1.40
2023-01-27T10:46:58.456Z,1.36
2023-01-27T10:50:14.581Z,1.25
2023-01-27T10:52:48.077Z,1.29
2023-01-27T10:55:21.874Z,1.29
2023-01-27T11:01:18.121Z,1.32
2023-01-27T11:03:33.886Z,1.23
2023-01-27T11:06:08.505Z,1.27
2023-01-27T11:08:38.355Z,1.31
2023-01-27T11:11:27.061Z,1.29
2023-01-27T11:14:03.462Z,1.23
2023-01-27T11:16:37.301Z,1.36
2023-01-27T11:19:28.614Z,1.35
2023-01-27T11:22:07.105Z,1.45
2023-01-27T11:25:02.652Z,1.42
2023-01-27T11:27:55.248Z,1.55
2023-01-27T11:30:28.117Z,1.54
2023-01-27T11:35:30.843Z,1.53
2023-01-27T11:38:09.892Z,1.49
2023-01-27T11:40:41.723Z,1.59
2023-01-27T11:43:16.321Z,1.49
2023-01-27T11:45:45.279Z,1.48
2023-01-27T11:48:14.946Z,1.53
2023-01-27T11:50:43.112Z,1.46
2023-01-27T11:53:09.541Z,1.42
2023-01-27T11:55:44.005Z,1.43
2023-01-27T11:58:19.523Z,1.47
2023-01-27T12:00:51.832Z,1.43
2023-01-27T12:03:47.530Z,1.46
2023-01-27T12:06:41.755Z,1.45
2023-01-27T12:09:35.997Z,1.40
2023-01-27T12:12:15.056Z,1.33
2023-01-27T12:14:59.852Z,1.38
2023-01-27T12:17:55.387Z,1.49
2023-01-27T12:20:21.940Z,1.48
2023-01-27T12:22:53.711Z,1.39
2023-01-27T12:25:25.362Z,1.32
2023-01-27T12:27:55.170Z,1.36
2023-01-27T12:30:25.085Z,1.38
2023-01-27T12:32:52.563Z,1.40
2023-01-27T12:35:30.551Z,1.46
2023-01-27T12:38:05.376Z,1.41
2023-01-27T12:40:33.934Z,1.47
2023-01-27T12:43:22.648Z,1.51
2023-01-27T12:46:10.559Z,1.41
2023-01-27T12:48:48.226Z,1.57
2023-01-27T12:51:21.328Z,1.47
2023-01-27T12:53:49.901Z,1.42
2023-01-27T12:59:00.241Z,1.57
2023-01-27T13:01:37.542Z,1.61
2023-01-27T13:04:16.390Z,1.58
2023-01-27T13:07:03.880Z,1.69
2023-01-27T13:09:50.962Z,1.83
2023-01-27T13:12:27.925Z,1.74
2023-01-27T13:14:57.468Z,1.88
2023-01-27T13:17:36.095Z,1.90
2023-01-27T13:20:16.539Z,1.79
2023-01-27T13:22:53.825Z,1.70
2023-01-27T13:25:24.908Z,1.53
2023-01-27T13:27:56.686Z,1.71
2023-01-27T13:30:29.169Z,1.63
2023-01-27T13:33:02.887Z,1.57
2023-01-27T13:35:41.886Z,1.60
2023-01-27T13:38:19.459Z,1.48
2023-01-27T13:40:47.533Z,1.62
2023-01-27T13:43:20.918Z,1.54
2023-01-27T13:45:59.443Z,1.61
2023-01-27T13:48:32.160Z,1.45
2023-01-27T13:51:18.373Z,1.42
2023-01-27T13:53:47.774Z,1.34
2023-01-27T13:56:37.346Z,1.40
2023-01-27T13:59:25.788Z,1.46
2023-01-27T14:02:26.769Z,1.50
2023-01-27T14:05:17.411Z,1.58
2023-01-27T14:08:15.049Z,1.55
2023-01-27T14:10:55.687Z,1.50
2023-01-27T14:13:56.063Z,1.39
2023-01-27T14:16:33.644Z,1.35
2023-01-27T14:19:37.075Z,1.43
2023-01-27T14:22:20.171Z,1.40
2023-01-27T14:24:53.398Z,1.46
2023-01-27T14:27:28.971Z,1.46
2023-01-27T14:30:19.356Z,1.41
2023-01-27T14:32:58.809Z,1.46
2023-01-27T14:35:59.457Z,1.35
2023-01-27T14:38:48.392Z,1.30
2023-01-27T14:41:32.270Z,1.26
2023-01-27T14:44:15.260Z,1.18
2023-01-27T14:46:56.292Z,1.29
2023-01-27T14:49:40.591Z,1.33
2023-01-27T14:52:23.609Z,1.20
2023-01-27T14:55:28.000Z,1.33
2023-01-27T15:00:59.762Z,1.30
2023-01-27T15:03:50.424Z,1.51
2023-01-27T15:06:35.070Z,1.35
2023-01-27T15:09:26.463Z,1.27
2023-01-27T15:12:29.833Z,1.35
2023-01-27T15:15:03.321Z,1.48
2023-01-27T15:17:46.422Z,1.38
2023-01-27T15:20:49.165Z,1.38
2023-01-27T15:23:26.799Z,1.45
2023-01-27T15:26:00.143Z,1.42
2023-01-27T15:28:32.327Z,1.52
2023-01-27T15:31:06.294Z,1.42
2023-01-27T15:34:04.698Z,1.38
2023-01-27T15:36:40.389Z,1.49
2023-01-27T15:39:09.953Z,1.57
2023-01-27T15:41:38.186Z,1.68
2023-01-27T15:44:04.918Z,1.68
2023-01-27T15:46:36.199Z,1.75
2023-01-27T15:49:05.229Z,1.69
2023-01-27T15:51:36.662Z,1.52
2023-01-27T15:54:04.484Z,1.42
2023-01-27T15:57:06.648Z,1.55
2023-01-27T15:59:58.444Z,1.48
2023-01-27T16:02:28.986Z,1.48
2023-01-27T16:10:18.999Z,1.37
2023-01-27T16:12:48.688Z,1.49
2023-01-27T16:15:15.586Z,1.42
2023-01-27T16:17:57.461Z,1.52
2023-01-27T16:20:29.361Z,1.47
2023-01-27T16:26:30.562Z,1.41
2023-01-27T16:29:17.693Z,1.45
2023-01-27T16:31:44.420Z,1.44
2023-01-27T16:34:23.374Z,1.47
2023-01-27T16:37:01.077Z,1.42
2023-01-27T16:39:50.799Z,1.64
2023-01-27T16:42:17.780Z,1.46
2023-01-27T16:44:50.964Z,1.51
2023-01-27T16:47:41.411Z,1.53
2023-01-27T16:50:32.046Z,1.47
2023-01-27T16:52:58.780Z,1.60
2023-01-27T16:55:25.572Z,1.58
2023-01-27T16:57:54.639Z,1.60
2023-01-27T17:00:28.632Z,1.67
2023-01-27T17:02:58.151Z,1.46
2023-01-27T17:05:25.952Z,1.60
2023-01-27T17:08:14.340Z,1.69
2023-01-27T17:11:08.260Z,1.52
2023-01-27T17:13:44.597Z,1.52
2023-01-27T17:16:19.130Z,1.55
2023-01-27T17:18:52.758Z,1.50
2023-01-27T17:21:29.580Z,1.45
2023-01-27T17:24:01.999Z,1.38
2023-01-27T17:26:28.696Z,1.33
2023-01-27T17:28:55.355Z,1.51
2023-01-27T17:31:24.786Z,1.49
2023-01-27T17:33:59.167Z,1.52
2023-01-27T17:36:25.744Z,1.46
2023-01-27T17:38:55.589Z,1.39
2023-01-27T17:41:35.938Z,1.37
2023-01-27T17:44:11.529Z,1.38
2023-01-27T17:46:38.779Z,1.49
2023-01-27T17:49:16.540Z,1.40
2023-01-27T17:54:25.847Z,1.31
2023-01-27T17:57:00.871Z,1.52
2023-01-27T17:59:28.881Z,1.65
2023-01-27T18:01:59.775Z,1.53
2023-01-27T18:04:26.407Z,1.48
2023-01-27T18:06:53.024Z,1.42
2023-01-27T18:09:24.977Z,1.50
2023-01-27T18:11:53.586Z,1.42
2023-01-27T18:14:21.439Z,1.39
2023-01-27T18:17:05.658Z,1.42
2023-01-27T18:19:33.744Z,1.52
2023-01-27T18:22:10.313Z,1.51
2023-01-27T18:27:30.618Z,1.39
2023-01-27T18:30:02.216Z,1.47
2023-01-27T18:32:37.914Z,1.48
2023-01-27T18:35:21.549Z,1.50
2023-01-27T18:37:58.681Z,1.53
2023-01-27T18:40:30.380Z,1.46
2023-01-27T18:42:57.839Z,1.51
2023-01-27T18:45:26.091Z,1.46
2023-01-27T18:47:52.983Z,1.51
2023-01-27T18:50:25.081Z,1.94
2023-01-27T18:52:52.291Z,1.74
2023-01-27T18:55:20.703Z,1.63
2023-01-27T18:57:49.948Z,1.58
2023-01-27T19:00:19.329Z,1.81
2023-01-27T19:02:49.137Z,1.72
2023-01-27T19:05:21.439Z,1.65
2023-01-27T19:07:48.111Z,1.60
2023-01-27T19:10:20.813Z,3.14
2023-01-27T19:12:47.432Z,3.48
2023-01-27T19:15:15.098Z,2.57
2023-01-27T19:17:44.689Z,2.14
2023-01-27T19:20:19.776Z,2.03
2023-01-27T19:22:47.519Z,1.86
2023-01-27T19:25:14.526Z,1.87
2023-01-27T19:27:43.439Z,1.71
2023-01-27T19:30:28.162Z,1.66
2023-01-27T19:32:55.762Z,1.62
2023-01-27T19:35:24.208Z,1.63
2023-01-27T19:37:53.898Z,1.52
2023-01-27T19:40:23.907Z,1.57
2023-01-27T19:42:50.721Z,1.55
2023-01-27T19:45:19.308Z,1.60
2023-01-27T19:47:49.121Z,1.55
2023-01-27T19:50:27.436Z,1.56
2023-01-27T19:52:53.979Z,1.46
2023-01-27T19:55:21.328Z,1.51
2023-01-27T19:57:49.081Z,1.54
2023-01-27T20:00:25.892Z,1.55
2023-01-27T20:02:53.163Z,1.54
2023-01-27T20:05:20.566Z,1.49
2023-01-27T20:10:27.241Z,1.54
2023-01-27T20:13:05.874Z,1.49
2023-01-27T20:15:37.321Z,1.47
2023-01-27T20:18:04.696Z,1.64
2023-01-27T20:20:31.377Z,1.65
2023-01-27T20:22:58.076Z,1.51
2023-01-27T20:25:27.800Z,1.49
2023-01-27T20:28:00.022Z,1.48
2023-01-27T20:30:29.258Z,1.59
2023-01-27T20:32:56.511Z,1.52
2023-01-27T20:35:23.272Z,1.45
2023-01-27T20:37:51.779Z,1.54
2023-01-27T20:40:23.732Z,1.48
2023-01-27T20:42:51.229Z,1.52
2023-01-27T20:45:18.346Z,1.50
2023-01-27T20:47:49.810Z,1.43
2023-01-27T20:50:16.580Z,1.61
2023-01-27T20:52:43.193Z,1.57
2023-01-27T20:55:09.932Z,1.51
2023-01-27T20:57:36.580Z,1.55
2023-01-27T21:00:03.275Z,1.51
2023-01-27T21:02:30.128Z,1.48
2023-01-27T21:04:57.074Z,1.47
2023-01-27T21:07:24.744Z,1.60
2023-01-27T21:09:53.617Z,1.59
2023-01-27T21:12:21.448Z,1.52
2023-01-27T21:14:48.256Z,1.50
2023-01-27T21:17:14.810Z,1.52
2023-01-27T21:19:41.457Z,1.62
2023-01-27T21:22:07.973Z,1.56
2023-01-27T21:24:35.601Z,1.49
2023-01-27T21:27:02.199Z,1.59
2023-01-27T21:29:28.752Z,1.64
2023-01-27T21:34:29.035Z,1.75
2023-01-27T21:36:55.999Z,1.72
2023-01-27T21:39:23.536Z,1.70
2023-01-27T21:41:52.832Z,1.64
2023-01-27T21:44:39.554Z,1.73
2023-01-27T21:47:08.431Z,1.70
2023-01-27T21:49:56.006Z,1.71
2023-01-27T21:52:24.135Z,1.72
2023-01-27T21:54:50.757Z,1.72
2023-01-27T21:57:18.110Z,1.82
2023-01-27T22:02:18.547Z,1.89
2023-01-27T22:04:46.278Z,1.85
2023-01-27T22:07:15.695Z,1.74
2023-01-27T22:09:42.613Z,1.83
2023-01-27T22:12:11.309Z,1.73
2023-01-27T22:14:37.907Z,1.81
2023-01-27T22:17:04.528Z,1.74
2023-01-27T22:19:31.255Z,1.71
2023-01-27T22:21:57.883Z,1.72
2023-01-27T22:24:24.623Z,1.68
2023-01-27T22:26:51.566Z,1.70
2023-01-27T22:29:18.124Z,1.64
2023-01-27T22:31:44.642Z,1.56
2023-01-27T22:34:11.197Z,1.60
2023-01-27T22:36:37.774Z,1.60
2023-01-27T22:39:05.101Z,1.66
2023-01-27T22:41:32.189Z,1.73
2023-01-27T22:46:29.995Z,1.79
2023-01-27T22:48:56.487Z,1.76
2023-01-27T22:51:23.036Z,1.85
2023-01-27T22:53:49.690Z,1.81
2023-01-27T22:56:16.281Z,1.82
2023-01-27T22:58:42.837Z,1.77
2023-01-27T23:01:09.395Z,1.61
2023-01-27T23:03:35.986Z,1.73
2023-01-27T23:06:06.624Z,1.66
2023-01-27T23:08:34.135Z,1.59
2023-01-27T23:11:05.231Z,1.68
2023-01-27T23:13:32.587Z,1.69
2023-01-27T23:15:59.300Z,1.85
2023-01-27T23:18:25.887Z,1.82
2023-01-27T23:20:53.184Z,1.74
2023-01-27T23:23:19.859Z,1.72
2023-01-27T23:25:47.733Z,1.73
2023-01-27T23:28:16.709Z,1.73
2023-01-27T23:30:44.679Z,1.72
2023-01-27T23:33:12.536Z,1.75
2023-01-27T23:35:39.487Z,1.80
2023-01-27T23:38:14.020Z,1.85
2023-01-27T23:40:45.971Z,1.77
2023-01-27T23:43:12.484Z,1.72
2023-01-27T23:45:39.383Z,1.79
2023-01-27T23:48:06.108Z,1.68
2023-01-27T23:50:32.624Z,1.69
2023-01-27T23:52:59.171Z,1.66
2023-01-27T23:55:25.850Z,1.85
2023-01-27T23:57:52.408Z,1.69
